sensor_id;sensor_type;location;lat;lon;timestamp;pressure;altitude;pressure_sealevel;temperature;humidity
3254;BME280;1639;42.804;23.342;2022-07-11T00:02:03;72682.75;;;-148.52;79.42
3254;BME280;1639;42.804;23.342;2022-07-11T00:04:29;72691.00;;;-148.52;79.81
3254;BME280;1639;42.804;23.342;2022-07-11T00:06:55;72711.69;;;-148.52;79.49
3254;BME280;1639;42.804;23.342;2022-07-11T00:09:21;72709.63;;;-148.52;80.64
3254;BME280;1639;42.804;23.342;2022-07-11T00:11:47;72699.28;;;-148.52;80.41
3254;BME280;1639;42.804;23.342;2022-07-11T00:14:13;72701.34;;;-148.52;81.87
3254;BME280;1639;42.804;23.342;2022-07-11T00:16:39;72713.75;;;-148.52;82.50
3254;BME280;1639;42.804;23.342;2022-07-11T00:19:04;72703.44;;;-148.52;81.48
3254;BME280;1639;42.804;23.342;2022-07-11T00:21:31;72724.09;;;-148.52;81.77
3254;BME280;1639;42.804;23.342;2022-07-11T00:23:57;72709.63;;;-148.52;81.46
3254;BME280;1639;42.804;23.342;2022-07-11T00:26:22;72719.97;;;-148.52;80.03
3254;BME280;1639;42.804;23.342;2022-07-11T00:28:48;72732.38;;;-148.52;80.74
3254;BME280;1639;42.804;23.342;2022-07-11T00:31:14;72736.50;;;-148.52;80.50
3254;BME280;1639;42.804;23.342;2022-07-11T00:33:39;72736.50;;;-148.52;80.61
3254;BME280;1639;42.804;23.342;2022-07-11T00:36:05;72740.66;;;-148.52;80.48
3254;BME280;1639;42.804;23.342;2022-07-11T00:38:31;72751.00;;;-148.52;80.77
3254;BME280;1639;42.804;23.342;2022-07-11T00:40:56;72753.06;;;-148.52;80.09
3254;BME280;1639;42.804;23.342;2022-07-11T00:43:32;72765.47;;;-148.52;82.12
3254;BME280;1639;42.804;23.342;2022-07-11T00:45:59;72788.22;;;-148.52;81.96
3254;BME280;1639;42.804;23.342;2022-07-11T00:48:24;72784.09;;;-148.52;81.39
3254;BME280;1639;42.804;23.342;2022-07-11T00:50:50;72790.28;;;-148.52;81.00
3254;BME280;1639;42.804;23.342;2022-07-11T00:53:17;72794.41;;;-148.52;81.51
3254;BME280;1639;42.804;23.342;2022-07-11T00:55:44;72804.75;;;-148.52;81.94
3254;BME280;1639;42.804;23.342;2022-07-11T00:58:10;72806.81;;;-148.52;80.79
3254;BME280;1639;42.804;23.342;2022-07-11T01:00:36;72819.25;;;-148.52;81.75
3254;BME280;1639;42.804;23.342;2022-07-11T01:03:02;72844.06;;;-148.52;85.82
3254;BME280;1639;42.804;23.342;2022-07-11T01:05:27;72850.25;;;-148.52;88.31
3254;BME280;1639;42.804;23.342;2022-07-11T01:07:53;72839.91;;;-148.52;89.47
3254;BME280;1639;42.804;23.342;2022-07-11T01:10:18;72798.56;;;-148.52;86.41
3254;BME280;1639;42.804;23.342;2022-07-11T01:12:44;72817.16;;;-148.52;86.09
3254;BME280;1639;42.804;23.342;2022-07-11T01:15:09;72817.16;;;-148.52;85.88
3254;BME280;1639;42.804;23.342;2022-07-11T01:17:35;72815.09;;;-148.52;85.95
3254;BME280;1639;42.804;23.342;2022-07-11T01:20:01;72806.81;;;-148.52;84.74
3254;BME280;1639;42.804;23.342;2022-07-11T01:22:29;72802.69;;;-148.52;83.11
3254;BME280;1639;42.804;23.342;2022-07-11T01:24:57;72817.16;;;-148.52;83.44
3254;BME280;1639;42.804;23.342;2022-07-11T01:27:23;72800.63;;;-148.52;83.53
3254;BME280;1639;42.804;23.342;2022-07-11T01:29:48;72817.16;;;-148.52;84.10
3254;BME280;1639;42.804;23.342;2022-07-11T01:32:14;72842.00;;;-148.52;87.49
3254;BME280;1639;42.804;23.342;2022-07-11T01:34:42;72844.06;;;-148.52;89.10
3254;BME280;1639;42.804;23.342;2022-07-11T01:37:07;72844.06;;;-148.52;90.22
3254;BME280;1639;42.804;23.342;2022-07-11T01:39:32;72829.56;;;-148.52;88.64
3254;BME280;1639;42.804;23.342;2022-07-11T01:41:58;72839.91;;;-148.52;88.35
3254;BME280;1639;42.804;23.342;2022-07-11T01:44:24;72850.25;;;-148.52;89.96
3254;BME280;1639;42.804;23.342;2022-07-11T01:46:49;72852.31;;;-148.52;88.91
3254;BME280;1639;42.804;23.342;2022-07-11T01:49:15;72829.56;;;-148.52;88.71
3254;BME280;1639;42.804;23.342;2022-07-11T01:51:41;72831.66;;;-148.52;86.40
3254;BME280;1639;42.804;23.342;2022-07-11T01:54:07;72831.66;;;-148.52;86.15
3254;BME280;1639;42.804;23.342;2022-07-11T01:56:32;72839.91;;;-148.52;88.08
3254;BME280;1639;42.804;23.342;2022-07-11T01:58:58;72858.53;;;-148.52;86.39
3254;BME280;1639;42.804;23.342;2022-07-11T02:01:24;72856.47;;;-148.52;86.65
3254;BME280;1639;42.804;23.342;2022-07-11T02:03:50;72852.31;;;-148.52;86.49
3254;BME280;1639;42.804;23.342;2022-07-11T02:06:16;72844.06;;;-148.52;85.75
3254;BME280;1639;42.804;23.342;2022-07-11T02:08:41;72827.50;;;-148.52;84.80
3254;BME280;1639;42.804;23.342;2022-07-11T02:11:06;72842.00;;;-148.52;85.44
3254;BME280;1639;42.804;23.342;2022-07-11T02:13:32;72842.00;;;-148.52;85.06
3254;BME280;1639;42.804;23.342;2022-07-11T02:15:58;72852.31;;;-148.52;87.19
3254;BME280;1639;42.804;23.342;2022-07-11T02:18:24;72860.59;;;-148.52;87.54
3254;BME280;1639;42.804;23.342;2022-07-11T02:20:49;72877.16;;;-148.52;83.87
3254;BME280;1639;42.804;23.342;2022-07-11T02:23:16;72901.97;;;-148.52;85.25
3254;BME280;1639;42.804;23.342;2022-07-11T02:25:42;72899.91;;;-148.52;86.52
3254;BME280;1639;42.804;23.342;2022-07-11T02:28:08;72906.09;;;-148.52;86.19
3254;BME280;1639;42.804;23.342;2022-07-11T02:30:34;72918.50;;;-148.52;88.15
3254;BME280;1639;42.804;23.342;2022-07-11T02:33:00;72928.84;;;-148.52;87.75
3254;BME280;1639;42.804;23.342;2022-07-11T02:35:26;72914.38;;;-148.52;86.96
3254;BME280;1639;42.804;23.342;2022-07-11T02:37:51;72937.13;;;-148.52;84.90
3254;BME280;1639;42.804;23.342;2022-07-11T02:40:16;72939.19;;;-148.52;86.19
3254;BME280;1639;42.804;23.342;2022-07-11T02:42:42;72947.47;;;-148.52;87.97
3254;BME280;1639;42.804;23.342;2022-07-11T02:45:08;72955.75;;;-148.52;87.49
3254;BME280;1639;42.804;23.342;2022-07-11T02:47:35;72943.31;;;-148.52;86.26
3254;BME280;1639;42.804;23.342;2022-07-11T02:50:01;72949.53;;;-148.52;85.66
3254;BME280;1639;42.804;23.342;2022-07-11T02:52:26;72943.31;;;-148.52;84.24
3254;BME280;1639;42.804;23.342;2022-07-11T02:54:52;72939.19;;;-148.52;85.06
3254;BME280;1639;42.804;23.342;2022-07-11T02:57:17;72947.47;;;-148.52;84.49
3254;BME280;1639;42.804;23.342;2022-07-11T02:59:43;72953.66;;;-148.52;84.74
3254;BME280;1639;42.804;23.342;2022-07-11T03:02:08;72966.06;;;-148.52;84.08
3254;BME280;1639;42.804;23.342;2022-07-11T03:04:34;72980.56;;;-148.52;84.52
3254;BME280;1639;42.804;23.342;2022-07-11T03:06:59;72976.41;;;-148.52;84.51
3254;BME280;1639;42.804;23.342;2022-07-11T03:09:25;72961.94;;;-148.52;85.45
3254;BME280;1639;42.804;23.342;2022-07-11T03:11:51;72957.81;;;-148.52;86.23
3254;BME280;1639;42.804;23.342;2022-07-11T03:14:17;72957.81;;;-148.52;88.71
3254;BME280;1639;42.804;23.342;2022-07-11T03:16:43;72951.59;;;-148.52;89.85
3254;BME280;1639;42.804;23.342;2022-07-11T03:19:08;72947.47;;;-148.52;89.63
3254;BME280;1639;42.804;23.342;2022-07-11T03:21:34;72935.06;;;-148.52;89.19
3254;BME280;1639;42.804;23.342;2022-07-11T03:23:59;72937.13;;;-148.52;88.58
3254;BME280;1639;42.804;23.342;2022-07-11T03:26:25;72926.78;;;-148.52;88.74
3254;BME280;1639;42.804;23.342;2022-07-11T03:28:51;72926.78;;;-148.52;88.94
3254;BME280;1639;42.804;23.342;2022-07-11T03:31:16;72899.91;;;-148.52;88.46
3254;BME280;1639;42.804;23.342;2022-07-11T03:33:42;72887.50;;;-148.52;87.71
3254;BME280;1639;42.804;23.342;2022-07-11T03:36:07;72866.81;;;-148.52;86.49
3254;BME280;1639;42.804;23.342;2022-07-11T03:38:33;72854.41;;;-148.52;84.51
3254;BME280;1639;42.804;23.342;2022-07-11T03:40:58;72848.19;;;-148.52;83.40
3254;BME280;1639;42.804;23.342;2022-07-11T03:43:23;72835.78;;;-148.52;82.31
3254;BME280;1639;42.804;23.342;2022-07-11T03:45:49;72831.66;;;-148.52;81.30
3254;BME280;1639;42.804;23.342;2022-07-11T03:48:14;72823.38;;;-148.52;80.97
3254;BME280;1639;42.804;23.342;2022-07-11T03:50:40;72817.16;;;-148.52;80.55
3254;BME280;1639;42.804;23.342;2022-07-11T03:53:05;72804.75;;;-148.52;80.06
3254;BME280;1639;42.804;23.342;2022-07-11T03:55:31;72802.69;;;-148.52;79.38
3254;BME280;1639;42.804;23.342;2022-07-11T03:58:00;72790.28;;;-148.52;79.48
3254;BME280;1639;42.804;23.342;2022-07-11T04:00:27;72782.00;;;-148.52;79.65
3254;BME280;1639;42.804;23.342;2022-07-11T04:02:52;72777.88;;;-148.52;78.80
3254;BME280;1639;42.804;23.342;2022-07-11T04:05:18;72769.59;;;-148.52;78.60
3254;BME280;1639;42.804;23.342;2022-07-11T04:07:43;72759.25;;;-148.52;78.32
3254;BME280;1639;42.804;23.342;2022-07-11T04:10:09;72771.66;;;-148.52;79.53
3254;BME280;1639;42.804;23.342;2022-07-11T04:12:34;72784.09;;;-148.52;79.94
3254;BME280;1639;42.804;23.342;2022-07-11T04:15:00;72765.47;;;-148.52;80.07
3254;BME280;1639;42.804;23.342;2022-07-11T04:17:26;72736.50;;;-148.52;79.86
3254;BME280;1639;42.804;23.342;2022-07-11T04:19:52;72713.75;;;-148.52;78.66
3254;BME280;1639;42.804;23.342;2022-07-11T04:22:18;72699.28;;;-148.52;77.91
3254;BME280;1639;42.804;23.342;2022-07-11T04:24:44;72678.59;;;-148.52;76.68
3254;BME280;1639;42.804;23.342;2022-07-11T04:27:09;72649.66;;;-148.52;76.20
3254;BME280;1639;42.804;23.342;2022-07-11T04:29:35;72622.78;;;-148.52;75.42
3254;BME280;1639;42.804;23.342;2022-07-11T04:32:00;72597.97;;;-148.52;74.59
3254;BME280;1639;42.804;23.342;2022-07-11T04:34:26;72591.75;;;-148.52;74.13
3254;BME280;1639;42.804;23.342;2022-07-11T04:36:51;72583.47;;;-148.52;72.40
3254;BME280;1639;42.804;23.342;2022-07-11T04:39:16;72587.63;;;-148.52;72.90
3254;BME280;1639;42.804;23.342;2022-07-11T04:41:42;72597.97;;;-148.52;72.12
3254;BME280;1639;42.804;23.342;2022-07-11T04:44:07;72597.97;;;-148.52;73.18
3254;BME280;1639;42.804;23.342;2022-07-11T04:46:33;72602.09;;;-148.52;72.38
3254;BME280;1639;42.804;23.342;2022-07-11T04:49:00;72606.22;;;-148.52;72.68
3254;BME280;1639;42.804;23.342;2022-07-11T04:51:25;72612.44;;;-148.52;72.84
3254;BME280;1639;42.804;23.342;2022-07-11T04:53:51;72624.84;;;-148.52;72.30
3254;BME280;1639;42.804;23.342;2022-07-11T04:56:16;72628.97;;;-148.52;72.29
3254;BME280;1639;42.804;23.342;2022-07-11T04:58:42;72651.72;;;-148.52;73.34
3254;BME280;1639;42.804;23.342;2022-07-11T05:01:08;72662.06;;;-148.52;73.97
3254;BME280;1639;42.804;23.342;2022-07-11T05:03:34;72670.34;;;-148.52;74.64
3254;BME280;1639;42.804;23.342;2022-07-11T05:06:00;72678.59;;;-148.52;75.27
3254;BME280;1639;42.804;23.342;2022-07-11T05:08:25;72651.72;;;-148.52;75.85
3254;BME280;1639;42.804;23.342;2022-07-11T05:10:51;72628.97;;;-148.52;75.46
3254;BME280;1639;42.804;23.342;2022-07-11T05:13:16;72595.88;;;-148.52;75.02
3254;BME280;1639;42.804;23.342;2022-07-11T05:15:42;72581.41;;;-148.52;73.47
3254;BME280;1639;42.804;23.342;2022-07-11T05:18:09;72569.00;;;-148.52;72.54
3254;BME280;1639;42.804;23.342;2022-07-11T05:20:35;72544.19;;;-148.52;71.95
3254;BME280;1639;42.804;23.342;2022-07-11T05:23:00;72527.66;;;-148.52;70.00
3254;BME280;1639;42.804;23.342;2022-07-11T05:25:25;72504.91;;;-148.52;69.79
3254;BME280;1639;42.804;23.342;2022-07-11T05:27:51;72486.28;;;-148.52;68.70
3254;BME280;1639;42.804;23.342;2022-07-11T05:30:17;72465.59;;;-148.52;69.55
3254;BME280;1639;42.804;23.342;2022-07-11T05:32:42;72451.13;;;-148.52;67.13
3254;BME280;1639;42.804;23.342;2022-07-11T05:35:08;72442.84;;;-148.52;66.40
3254;BME280;1639;42.804;23.342;2022-07-11T05:37:34;72442.84;;;-148.52;66.09
3254;BME280;1639;42.804;23.342;2022-07-11T05:39:59;72436.66;;;-148.52;64.24
3254;BME280;1639;42.804;23.342;2022-07-11T05:42:25;72418.03;;;-148.52;64.26
3254;BME280;1639;42.804;23.342;2022-07-11T05:44:51;72413.91;;;-148.52;62.74
3254;BME280;1639;42.804;23.342;2022-07-11T05:47:17;72397.38;;;-148.52;62.04
3254;BME280;1639;42.804;23.342;2022-07-11T05:49:42;72395.28;;;-148.52;61.11
3254;BME280;1639;42.804;23.342;2022-07-11T05:52:08;72384.97;;;-148.52;59.97
3254;BME280;1639;42.804;23.342;2022-07-11T05:54:34;72368.41;;;-148.52;57.99
3254;BME280;1639;42.804;23.342;2022-07-11T05:57:00;72360.13;;;-148.52;57.57
3254;BME280;1639;42.804;23.342;2022-07-11T05:59:29;72345.66;;;-148.52;56.46
3254;BME280;1639;42.804;23.342;2022-07-11T06:01:54;72329.13;;;-148.52;54.16
3254;BME280;1639;42.804;23.342;2022-07-11T06:04:20;72333.25;;;-148.52;52.70
3254;BME280;1639;42.804;23.342;2022-07-11T06:06:46;72329.13;;;-148.52;51.75
3254;BME280;1639;42.804;23.342;2022-07-11T06:09:11;72327.06;;;-148.52;52.02
3254;BME280;1639;42.804;23.342;2022-07-11T06:11:37;72300.16;;;-148.52;51.47
3254;BME280;1639;42.804;23.342;2022-07-11T06:14:03;72275.34;;;-148.52;50.01
3254;BME280;1639;42.804;23.342;2022-07-11T06:16:28;72256.75;;;-148.52;49.22
3254;BME280;1639;42.804;23.342;2022-07-11T06:18:54;72242.28;;;-148.52;48.48
3254;BME280;1639;42.804;23.342;2022-07-11T06:21:19;72225.72;;;-148.52;48.14
3254;BME280;1639;42.804;23.342;2022-07-11T06:23:49;72200.91;;;-148.52;47.04
3254;BME280;1639;42.804;23.342;2022-07-11T06:26:15;72182.31;;;-148.52;45.43
3254;BME280;1639;42.804;23.342;2022-07-11T06:28:41;72174.03;;;-148.52;46.75
3254;BME280;1639;42.804;23.342;2022-07-11T06:31:07;72157.50;;;-148.52;45.23
3254;BME280;1639;42.804;23.342;2022-07-11T06:33:33;72138.88;;;-148.52;44.96
3254;BME280;1639;42.804;23.342;2022-07-11T06:35:59;72130.63;;;-148.52;44.07
3254;BME280;1639;42.804;23.342;2022-07-11T06:38:24;72112.00;;;-148.52;43.17
3254;BME280;1639;42.804;23.342;2022-07-11T06:40:50;72103.72;;;-148.52;42.46
3254;BME280;1639;42.804;23.342;2022-07-11T06:43:16;72107.88;;;-148.52;41.79
3254;BME280;1639;42.804;23.342;2022-07-11T06:45:41;72087.19;;;-148.52;41.65
3254;BME280;1639;42.804;23.342;2022-07-11T06:48:07;72066.50;;;-148.52;40.88
3254;BME280;1639;42.804;23.342;2022-07-11T06:50:32;72064.44;;;-148.52;40.03
3254;BME280;1639;42.804;23.342;2022-07-11T06:52:58;72070.66;;;-148.52;40.28
3254;BME280;1639;42.804;23.342;2022-07-11T06:55:24;72054.09;;;-148.52;39.49
3254;BME280;1639;42.804;23.342;2022-07-11T06:57:50;72049.97;;;-148.52;41.39
3254;BME280;1639;42.804;23.342;2022-07-11T07:00:16;72025.16;;;-148.52;39.18
3254;BME280;1639;42.804;23.342;2022-07-11T07:02:43;72029.28;;;-148.52;38.96
3254;BME280;1639;42.804;23.342;2022-07-11T07:05:08;72025.16;;;-148.52;38.01
3254;BME280;1639;42.804;23.342;2022-07-11T07:07:34;72021.03;;;-148.52;38.48
3254;BME280;1639;42.804;23.342;2022-07-11T07:10:00;72000.34;;;-148.52;37.22
3254;BME280;1639;42.804;23.342;2022-07-11T07:12:25;71992.06;;;-148.52;38.07
3254;BME280;1639;42.804;23.342;2022-07-11T07:14:51;71990.00;;;-148.52;36.97
3254;BME280;1639;42.804;23.342;2022-07-11T07:17:16;71975.53;;;-148.52;37.07
3254;BME280;1639;42.804;23.342;2022-07-11T07:19:42;72000.34;;;-148.52;35.53
3254;BME280;1639;42.804;23.342;2022-07-11T07:22:08;72029.28;;;-148.52;35.40
3254;BME280;1639;42.804;23.342;2022-07-11T07:24:34;72014.81;;;-148.52;38.41
3254;BME280;1639;42.804;23.342;2022-07-11T07:27:02;71981.75;;;-148.52;36.78
3254;BME280;1639;42.804;23.342;2022-07-11T07:29:27;71994.13;;;-148.52;35.08
3254;BME280;1639;42.804;23.342;2022-07-11T07:31:53;72029.28;;;-148.52;36.47
3254;BME280;1639;42.804;23.342;2022-07-11T07:34:21;72029.28;;;-148.52;36.08
3254;BME280;1639;42.804;23.342;2022-07-11T07:36:47;72014.81;;;-148.52;37.06
3254;BME280;1639;42.804;23.342;2022-07-11T07:39:12;72010.69;;;-148.52;35.48
3254;BME280;1639;42.804;23.342;2022-07-11T07:41:38;72012.75;;;-148.52;35.93
3254;BME280;1639;42.804;23.342;2022-07-11T07:44:03;72014.81;;;-148.52;36.23
3254;BME280;1639;42.804;23.342;2022-07-11T07:46:29;71975.53;;;-148.52;35.55
3254;BME280;1639;42.804;23.342;2022-07-11T07:48:54;71967.25;;;-148.52;35.06
3254;BME280;1639;42.804;23.342;2022-07-11T07:51:20;71944.53;;;-148.52;35.37
3254;BME280;1639;42.804;23.342;2022-07-11T07:53:47;71942.44;;;-148.52;34.49
3254;BME280;1639;42.804;23.342;2022-07-11T07:56:15;71921.78;;;-148.52;34.76
3254;BME280;1639;42.804;23.342;2022-07-11T07:58:44;71892.81;;;-148.52;34.52
3254;BME280;1639;42.804;23.342;2022-07-11T08:01:09;71917.63;;;-148.52;33.44
3254;BME280;1639;42.804;23.342;2022-07-11T08:03:54;71913.50;;;-148.52;35.16
3254;BME280;1639;42.804;23.342;2022-07-11T08:06:22;71901.09;;;-148.52;34.55
3254;BME280;1639;42.804;23.342;2022-07-11T08:08:48;71888.69;;;-148.52;34.99
3254;BME280;1639;42.804;23.342;2022-07-11T08:11:18;71886.63;;;-148.52;34.80
3254;BME280;1639;42.804;23.342;2022-07-11T08:13:45;71880.41;;;-148.52;34.20
3254;BME280;1639;42.804;23.342;2022-07-11T08:16:10;71892.81;;;-148.52;33.76
3254;BME280;1639;42.804;23.342;2022-07-11T08:18:37;71878.34;;;-148.52;33.68
3254;BME280;1639;42.804;23.342;2022-07-11T08:21:04;71865.94;;;-148.52;32.85
3254;BME280;1639;42.804;23.342;2022-07-11T08:23:29;71894.91;;;-148.52;34.04
3254;BME280;1639;42.804;23.342;2022-07-11T08:26:00;71876.28;;;-148.52;33.04
3254;BME280;1639;42.804;23.342;2022-07-11T08:28:29;71884.56;;;-148.52;33.12
3254;BME280;1639;42.804;23.342;2022-07-11T08:30:56;71859.75;;;-148.52;33.44
3254;BME280;1639;42.804;23.342;2022-07-11T08:33:35;71863.88;;;-148.52;32.17
3254;BME280;1639;42.804;23.342;2022-07-11T08:36:01;71882.50;;;-148.52;31.82
3254;BME280;1639;42.804;23.342;2022-07-11T08:38:30;71859.75;;;-148.52;32.41
3254;BME280;1639;42.804;23.342;2022-07-11T08:40:56;71865.94;;;-148.52;31.53
3254;BME280;1639;42.804;23.342;2022-07-11T08:43:28;71843.19;;;-148.52;32.95
3254;BME280;1639;42.804;23.342;2022-07-11T08:45:57;71826.66;;;-148.52;32.30
3254;BME280;1639;42.804;23.342;2022-07-11T08:48:24;71812.19;;;-148.52;32.19
3254;BME280;1639;42.804;23.342;2022-07-11T08:50:53;71830.81;;;-148.52;32.09
3254;BME280;1639;42.804;23.342;2022-07-11T08:53:28;71834.94;;;-148.52;33.78
3254;BME280;1639;42.804;23.342;2022-07-11T08:56:01;71795.66;;;-148.52;33.31
3254;BME280;1639;42.804;23.342;2022-07-11T08:58:29;71803.91;;;-148.52;32.19
3254;BME280;1639;42.804;23.342;2022-07-11T09:00:57;71806.00;;;-148.52;32.79
3254;BME280;1639;42.804;23.342;2022-07-11T09:03:23;71797.72;;;-148.52;32.83
3254;BME280;1639;42.804;23.342;2022-07-11T09:05:49;71760.50;;;-148.52;32.26
3254;BME280;1639;42.804;23.342;2022-07-11T09:08:15;71774.97;;;-148.52;32.88
3254;BME280;1639;42.804;23.342;2022-07-11T09:10:44;71764.63;;;-148.52;33.42
3254;BME280;1639;42.804;23.342;2022-07-11T09:13:11;71799.78;;;-148.52;32.98
3254;BME280;1639;42.804;23.342;2022-07-11T09:15:38;71785.31;;;-148.52;33.38
3254;BME280;1639;42.804;23.342;2022-07-11T09:20:55;71820.47;;;-148.52;32.67
3254;BME280;1639;42.804;23.342;2022-07-11T09:23:41;71806.00;;;-148.52;33.20
3254;BME280;1639;42.804;23.342;2022-07-11T09:26:33;71789.44;;;-148.52;33.98
3254;BME280;1639;42.804;23.342;2022-07-11T09:29:03;71783.25;;;-148.52;33.28
3254;BME280;1639;42.804;23.342;2022-07-11T09:31:33;71797.72;;;-148.52;32.05
3254;BME280;1639;42.804;23.342;2022-07-11T09:34:12;71785.31;;;-148.52;33.03
3254;BME280;1639;42.804;23.342;2022-07-11T09:36:48;71781.19;;;-148.52;32.67
3254;BME280;1639;42.804;23.342;2022-07-11T09:39:28;71750.16;;;-148.52;34.58
3254;BME280;1639;42.804;23.342;2022-07-11T09:41:59;71739.81;;;-148.52;34.06
3254;BME280;1639;42.804;23.342;2022-07-11T09:44:30;71764.63;;;-148.52;32.83
3254;BME280;1639;42.804;23.342;2022-07-11T09:47:02;71764.63;;;-148.52;32.69
3254;BME280;1639;42.804;23.342;2022-07-11T09:49:37;71746.03;;;-148.52;33.18
3254;BME280;1639;42.804;23.342;2022-07-11T09:52:17;71768.78;;;-148.52;32.65
3254;BME280;1639;42.804;23.342;2022-07-11T09:54:56;71772.91;;;-148.52;32.79
3254;BME280;1639;42.804;23.342;2022-07-11T09:57:36;71766.69;;;-148.52;33.68
3254;BME280;1639;42.804;23.342;2022-07-11T10:00:05;71750.16;;;-148.52;33.53
3254;BME280;1639;42.804;23.342;2022-07-11T10:02:34;71731.56;;;-148.52;33.07
3254;BME280;1639;42.804;23.342;2022-07-11T10:05:02;71768.78;;;-148.52;33.38
3254;BME280;1639;42.804;23.342;2022-07-11T10:07:31;71743.97;;;-148.52;33.39
3254;BME280;1639;42.804;23.342;2022-07-11T10:10:00;71758.44;;;-148.52;33.07
3254;BME280;1639;42.804;23.342;2022-07-11T10:12:28;71785.31;;;-148.52;32.62
3254;BME280;1639;42.804;23.342;2022-07-11T10:15:02;71777.03;;;-148.52;34.32
3254;BME280;1639;42.804;23.342;2022-07-11T10:20:13;71812.19;;;-148.52;32.63
3254;BME280;1639;42.804;23.342;2022-07-11T10:28:39;71818.38;;;-148.52;33.07
3254;BME280;1639;42.804;23.342;2022-07-11T10:31:21;71803.91;;;-148.52;33.42
3254;BME280;1639;42.804;23.342;2022-07-11T10:34:05;71772.91;;;-148.52;32.67
3254;BME280;1639;42.804;23.342;2022-07-11T10:36:39;71760.50;;;-148.52;33.47
3254;BME280;1639;42.804;23.342;2022-07-11T10:41:44;71731.56;;;-148.52;32.85
3254;BME280;1639;42.804;23.342;2022-07-11T10:44:13;71719.16;;;-148.52;33.53
3254;BME280;1639;42.804;23.342;2022-07-11T10:46:39;71754.28;;;-148.52;32.81
3254;BME280;1639;42.804;23.342;2022-07-11T10:51:37;71700.53;;;-148.52;34.64
3254;BME280;1639;42.804;23.342;2022-07-11T11:00:00;71692.28;;;-148.52;32.62
3254;BME280;1639;42.804;23.342;2022-07-11T11:02:27;71723.28;;;-148.52;32.15
3254;BME280;1639;42.804;23.342;2022-07-11T11:04:58;71704.69;;;-148.52;33.29
3254;BME280;1639;42.804;23.342;2022-07-11T11:07:41;71694.34;;;-148.52;32.84
3254;BME280;1639;42.804;23.342;2022-07-11T11:10:43;71663.31;;;-148.52;33.22
3254;BME280;1639;42.804;23.342;2022-07-11T11:13:11;71632.31;;;-148.52;32.69
3254;BME280;1639;42.804;23.342;2022-07-11T11:18:30;71638.50;;;-148.52;31.73
3254;BME280;1639;42.804;23.342;2022-07-11T11:23:39;71636.44;;;-148.52;31.39
3254;BME280;1639;42.804;23.342;2022-07-11T11:26:16;71644.72;;;-148.52;32.68
3254;BME280;1639;42.804;23.342;2022-07-11T11:28:57;71686.06;;;-148.52;33.13
3254;BME280;1639;42.804;23.342;2022-07-11T11:31:23;71696.41;;;-148.52;32.46
3254;BME280;1639;42.804;23.342;2022-07-11T11:33:49;71675.72;;;-148.52;32.01
3254;BME280;1639;42.804;23.342;2022-07-11T11:36:17;71669.53;;;-148.52;32.08
3254;BME280;1639;42.804;23.342;2022-07-11T11:38:43;71688.13;;;-148.52;32.38
3254;BME280;1639;42.804;23.342;2022-07-11T11:41:13;71673.66;;;-148.52;32.88
3254;BME280;1639;42.804;23.342;2022-07-11T11:43:45;71646.78;;;-148.52;33.19
3254;BME280;1639;42.804;23.342;2022-07-11T11:46:13;71669.53;;;-148.52;30.66
3254;BME280;1639;42.804;23.342;2022-07-11T11:48:40;71698.47;;;-148.52;31.86
3254;BME280;1639;42.804;23.342;2022-07-11T11:51:15;71700.53;;;-148.52;30.98
3254;BME280;1639;42.804;23.342;2022-07-11T11:53:47;71694.34;;;-148.52;32.86
3254;BME280;1639;42.804;23.342;2022-07-11T11:58:56;71669.53;;;-148.52;31.67
3254;BME280;1639;42.804;23.342;2022-07-11T12:01:39;71677.78;;;-148.52;32.05
3254;BME280;1639;42.804;23.342;2022-07-11T12:04:07;71673.66;;;-148.52;31.57
3254;BME280;1639;42.804;23.342;2022-07-11T12:06:35;71669.53;;;-148.52;32.42
3254;BME280;1639;42.804;23.342;2022-07-11T12:09:09;71640.59;;;-148.52;32.85
3254;BME280;1639;42.804;23.342;2022-07-11T12:11:46;71640.59;;;-148.52;32.17
3254;BME280;1639;42.804;23.342;2022-07-11T12:14:39;71659.19;;;-148.52;31.22
3254;BME280;1639;42.804;23.342;2022-07-11T12:17:07;71679.88;;;-148.52;31.83
3254;BME280;1639;42.804;23.342;2022-07-11T12:19:34;71673.66;;;-148.52;31.61
3254;BME280;1639;42.804;23.342;2022-07-11T12:22:04;71665.38;;;-148.52;31.57
3254;BME280;1639;42.804;23.342;2022-07-11T12:24:32;71667.47;;;-148.52;31.96
3254;BME280;1639;42.804;23.342;2022-07-11T12:27:04;71644.72;;;-148.52;31.59
3254;BME280;1639;42.804;23.342;2022-07-11T12:29:39;71653.00;;;-148.52;31.34
3254;BME280;1639;42.804;23.342;2022-07-11T12:32:14;71698.47;;;-148.52;31.30
3254;BME280;1639;42.804;23.342;2022-07-11T12:34:42;71702.59;;;-148.52;32.11
3254;BME280;1639;42.804;23.342;2022-07-11T12:37:09;71665.38;;;-148.52;32.16
3254;BME280;1639;42.804;23.342;2022-07-11T12:39:38;71681.94;;;-148.52;31.91
3254;BME280;1639;42.804;23.342;2022-07-11T12:42:32;71698.47;;;-148.52;31.44
3254;BME280;1639;42.804;23.342;2022-07-11T12:45:09;71684.00;;;-148.52;32.48
3254;BME280;1639;42.804;23.342;2022-07-11T12:47:38;71700.53;;;-148.52;31.07
3254;BME280;1639;42.804;23.342;2022-07-11T12:50:11;71715.00;;;-148.52;32.32
3254;BME280;1639;42.804;23.342;2022-07-11T12:52:39;71702.59;;;-148.52;31.82
3254;BME280;1639;42.804;23.342;2022-07-11T12:55:06;71723.28;;;-148.52;31.71
3254;BME280;1639;42.804;23.342;2022-07-11T12:57:33;71723.28;;;-148.52;32.04
3254;BME280;1639;42.804;23.342;2022-07-11T13:00:13;71684.00;;;-148.52;31.70
3254;BME280;1639;42.804;23.342;2022-07-11T13:02:47;71692.28;;;-148.52;31.38
3254;BME280;1639;42.804;23.342;2022-07-11T13:05:13;71657.13;;;-148.52;31.51
3254;BME280;1639;42.804;23.342;2022-07-11T13:07:41;71677.78;;;-148.52;31.93
3254;BME280;1639;42.804;23.342;2022-07-11T13:10:26;71690.19;;;-148.52;32.03
3254;BME280;1639;42.804;23.342;2022-07-11T13:13:12;71694.34;;;-148.52;31.83
3254;BME280;1639;42.804;23.342;2022-07-11T13:15:37;71710.88;;;-148.52;32.34
3254;BME280;1639;42.804;23.342;2022-07-11T13:18:03;71708.81;;;-148.52;31.84
3254;BME280;1639;42.804;23.342;2022-07-11T13:20:30;71704.69;;;-148.52;31.97
3254;BME280;1639;42.804;23.342;2022-07-11T13:22:56;71700.53;;;-148.52;31.46
3254;BME280;1639;42.804;23.342;2022-07-11T13:25:23;71729.50;;;-148.52;31.50